sensor_id;sensor_type;location;lat;lon;timestamp;P1;durP1;ratioP1;P2;durP2;ratioP2
30697;SDS011;17448;47.200;10.902;2023-12-20T00:01:43;7.70;;;3.40;;
30697;SDS011;17448;47.200;10.902;2023-12-20T00:04:09;5.75;;;3.35;;
30697;SDS011;17448;47.200;10.902;2023-12-20T00:06:35;5.85;;;3.55;;
30697;SDS011;17448;47.200;10.902;2023-12-20T00:09:01;7.05;;;3.97;;
30697;SDS011;17448;47.200;10.902;2023-12-20T00:11:27;5.18;;;3.38;;
30697;SDS011;17448;47.200;10.902;2023-12-20T00:13:53;8.82;;;3.70;;
30697;SDS011;17448;47.200;10.902;2023-12-20T00:16:20;5.20;;;3.20;;
30697;SDS011;17448;47.200;10.902;2023-12-20T00:18:46;6.72;;;3.42;;
30697;SDS011;17448;47.200;10.902;2023-12-20T00:21:12;5.53;;;3.22;;
30697;SDS011;17448;47.200;10.902;2023-12-20T00:23:39;3.47;;;2.78;;
30697;SDS011;17448;47.200;10.902;2023-12-20T00:26:05;3.95;;;2.70;;
30697;SDS011;17448;47.200;10.902;2023-12-20T00:28:31;5.43;;;3.25;;
30697;SDS011;17448;47.200;10.902;2023-12-20T00:30:57;6.57;;;3.20;;
30697;SDS011;17448;47.200;10.902;2023-12-20T00:33:23;5.13;;;3.70;;
30697;SDS011;17448;47.200;10.902;2023-12-20T00:35:50;5.15;;;3.00;;
30697;SDS011;17448;47.200;10.902;2023-12-20T00:38:16;7.60;;;3.15;;
30697;SDS011;17448;47.200;10.902;2023-12-20T00:40:42;5.30;;;2.83;;
30697;SDS011;17448;47.200;10.902;2023-12-20T00:43:08;4.72;;;3.00;;
30697;SDS011;17448;47.200;10.902;2023-12-20T00:45:34;4.05;;;2.60;;
30697;SDS011;17448;47.200;10.902;2023-12-20T00:48:00;5.80;;;2.80;;
30697;SDS011;17448;47.200;10.902;2023-12-20T00:50:27;5.53;;;2.90;;
30697;SDS011;17448;47.200;10.902;2023-12-20T00:52:53;4.30;;;2.75;;
30697;SDS011;17448;47.200;10.902;2023-12-20T00:55:20;4.85;;;3.00;;
30697;SDS011;17448;47.200;10.902;2023-12-20T00:57:46;3.85;;;2.80;;
30697;SDS011;17448;47.200;10.902;2023-12-20T01:00:12;3.90;;;2.83;;
30697;SDS011;17448;47.200;10.902;2023-12-20T01:02:38;4.45;;;2.53;;
30697;SDS011;17448;47.200;10.902;2023-12-20T01:05:05;5.05;;;2.50;;
30697;SDS011;17448;47.200;10.902;2023-12-20T01:07:32;4.95;;;2.50;;
30697;SDS011;17448;47.200;10.902;2023-12-20T01:09:59;3.88;;;2.72;;
30697;SDS011;17448;47.200;10.902;2023-12-20T01:12:25;4.05;;;2.70;;
30697;SDS011;17448;47.200;10.902;2023-12-20T01:14:51;3.17;;;2.03;;
30697;SDS011;17448;47.200;10.902;2023-12-20T01:17:17;3.67;;;2.60;;
30697;SDS011;17448;47.200;10.902;2023-12-20T01:19:44;2.53;;;2.30;;
30697;SDS011;17448;47.200;10.902;2023-12-20T01:22:10;3.28;;;2.17;;
30697;SDS011;17448;47.200;10.902;2023-12-20T01:24:36;2.85;;;2.15;;
30697;SDS011;17448;47.200;10.902;2023-12-20T01:27:02;3.88;;;2.50;;
30697;SDS011;17448;47.200;10.902;2023-12-20T01:29:28;3.67;;;2.25;;
30697;SDS011;17448;47.200;10.902;2023-12-20T01:31:55;3.30;;;1.90;;
30697;SDS011;17448;47.200;10.902;2023-12-20T01:34:21;5.85;;;2.85;;
30697;SDS011;17448;47.200;10.902;2023-12-20T01:36:47;2.92;;;2.17;;
30697;SDS011;17448;47.200;10.902;2023-12-20T01:39:13;4.85;;;2.17;;
30697;SDS011;17448;47.200;10.902;2023-12-20T01:41:39;3.10;;;2.00;;
30697;SDS011;17448;47.200;10.902;2023-12-20T01:44:05;5.05;;;2.42;;
30697;SDS011;17448;47.200;10.902;2023-12-20T01:46:32;3.50;;;2.25;;
30697;SDS011;17448;47.200;10.902;2023-12-20T01:48:58;2.97;;;2.03;;
30697;SDS011;17448;47.200;10.902;2023-12-20T01:51:24;3.53;;;1.90;;
30697;SDS011;17448;47.200;10.902;2023-12-20T01:53:52;3.03;;;1.98;;
30697;SDS011;17448;47.200;10.902;2023-12-20T01:56:19;3.15;;;2.20;;
30697;SDS011;17448;47.200;10.902;2023-12-20T01:58:46;3.50;;;2.53;;
30697;SDS011;17448;47.200;10.902;2023-12-20T02:01:13;2.35;;;1.98;;
30697;SDS011;17448;47.200;10.902;2023-12-20T02:03:42;2.80;;;2.03;;
30697;SDS011;17448;47.200;10.902;2023-12-20T02:06:09;2.60;;;2.00;;
30697;SDS011;17448;47.200;10.902;2023-12-20T02:08:35;3.17;;;1.80;;
30697;SDS011;17448;47.200;10.902;2023-12-20T02:11:01;2.15;;;1.73;;
30697;SDS011;17448;47.200;10.902;2023-12-20T02:13:28;2.20;;;1.70;;
30697;SDS011;17448;47.200;10.902;2023-12-20T02:15:54;2.38;;;1.90;;
30697;SDS011;17448;47.200;10.902;2023-12-20T02:18:21;2.65;;;1.60;;
30697;SDS011;17448;47.200;10.902;2023-12-20T02:20:47;2.78;;;1.52;;
30697;SDS011;17448;47.200;10.902;2023-12-20T02:23:13;2.38;;;1.80;;
30697;SDS011;17448;47.200;10.902;2023-12-20T02:25:39;2.50;;;1.75;;
30697;SDS011;17448;47.200;10.902;2023-12-20T02:28:06;2.03;;;1.50;;
30697;SDS011;17448;47.200;10.902;2023-12-20T02:30:32;1.98;;;1.80;;
30697;SDS011;17448;47.200;10.902;2023-12-20T02:32:59;2.60;;;1.70;;
30697;SDS011;17448;47.200;10.902;2023-12-20T02:35:27;5.07;;;2.00;;
30697;SDS011;17448;47.200;10.902;2023-12-20T02:37:53;4.38;;;2.33;;
30697;SDS011;17448;47.200;10.902;2023-12-20T02:40:19;2.60;;;2.05;;
30697;SDS011;17448;47.200;10.902;2023-12-20T02:42:45;2.60;;;1.92;;
30697;SDS011;17448;47.200;10.902;2023-12-20T02:45:11;3.17;;;2.00;;
30697;SDS011;17448;47.200;10.902;2023-12-20T02:47:38;3.25;;;2.35;;
30697;SDS011;17448;47.200;10.902;2023-12-20T02:50:04;2.88;;;2.20;;
30697;SDS011;17448;47.200;10.902;2023-12-20T02:52:30;3.00;;;2.00;;
30697;SDS011;17448;47.200;10.902;2023-12-20T02:54:56;3.55;;;2.15;;
30697;SDS011;17448;47.200;10.902;2023-12-20T02:57:22;3.83;;;2.30;;
30697;SDS011;17448;47.200;10.902;2023-12-20T02:59:49;2.85;;;2.20;;
30697;SDS011;17448;47.200;10.902;2023-12-20T03:02:15;3.30;;;2.00;;
30697;SDS011;17448;47.200;10.902;2023-12-20T03:04:41;3.75;;;2.25;;
30697;SDS011;17448;47.200;10.902;2023-12-20T03:07:07;2.10;;;1.88;;
30697;SDS011;17448;47.200;10.902;2023-12-20T03:09:33;2.22;;;2.00;;
30697;SDS011;17448;47.200;10.902;2023-12-20T03:11:59;2.60;;;1.70;;
30697;SDS011;17448;47.200;10.902;2023-12-20T03:14:26;2.58;;;1.67;;
30697;SDS011;17448;47.200;10.902;2023-12-20T03:16:52;5.70;;;2.00;;
30697;SDS011;17448;47.200;10.902;2023-12-20T03:19:18;2.08;;;1.88;;
30697;SDS011;17448;47.200;10.902;2023-12-20T03:21:44;2.30;;;1.85;;
30697;SDS011;17448;47.200;10.902;2023-12-20T03:24:11;5.65;;;2.63;;
30697;SDS011;17448;47.200;10.902;2023-12-20T03:26:37;3.08;;;2.00;;
30697;SDS011;17448;47.200;10.902;2023-12-20T03:29:03;2.38;;;1.80;;
30697;SDS011;17448;47.200;10.902;2023-12-20T03:31:29;4.20;;;1.90;;
30697;SDS011;17448;47.200;10.902;2023-12-20T03:33:55;1.75;;;1.65;;
30697;SDS011;17448;47.200;10.902;2023-12-20T03:36:22;3.22;;;2.10;;
30697;SDS011;17448;47.200;10.902;2023-12-20T03:38:48;3.25;;;2.13;;
30697;SDS011;17448;47.200;10.902;2023-12-20T03:41:14;4.60;;;2.25;;
30697;SDS011;17448;47.200;10.902;2023-12-20T03:43:40;4.85;;;2.58;;
30697;SDS011;17448;47.200;10.902;2023-12-20T03:46:10;6.43;;;2.22;;
30697;SDS011;17448;47.200;10.902;2023-12-20T03:48:36;3.15;;;2.08;;
30697;SDS011;17448;47.200;10.902;2023-12-20T03:51:03;2.55;;;1.95;;
30697;SDS011;17448;47.200;10.902;2023-12-20T03:53:29;4.13;;;2.20;;
30697;SDS011;17448;47.200;10.902;2023-12-20T03:55:55;3.50;;;2.10;;
30697;SDS011;17448;47.200;10.902;2023-12-20T03:58:21;3.20;;;2.03;;
30697;SDS011;17448;47.200;10.902;2023-12-20T04:00:47;3.20;;;1.80;;
30697;SDS011;17448;47.200;10.902;2023-12-20T04:03:14;3.17;;;2.05;;
30697;SDS011;17448;47.200;10.902;2023-12-20T04:05:40;3.75;;;2.47;;
30697;SDS011;17448;47.200;10.902;2023-12-20T04:08:07;3.53;;;2.20;;
30697;SDS011;17448;47.200;10.902;2023-12-20T04:10:33;2.42;;;2.08;;
30697;SDS011;17448;47.200;10.902;2023-12-20T04:12:59;4.90;;;2.10;;
30697;SDS011;17448;47.200;10.902;2023-12-20T04:15:25;4.03;;;2.70;;
30697;SDS011;17448;47.200;10.902;2023-12-20T04:17:51;4.63;;;2.60;;
30697;SDS011;17448;47.200;10.902;2023-12-20T04:20:17;3.92;;;2.75;;
30697;SDS011;17448;47.200;10.902;2023-12-20T04:22:44;4.70;;;2.58;;
30697;SDS011;17448;47.200;10.902;2023-12-20T04:25:10;6.00;;;2.95;;
30697;SDS011;17448;47.200;10.902;2023-12-20T04:27:36;5.18;;;3.20;;
30697;SDS011;17448;47.200;10.902;2023-12-20T04:30:02;5.15;;;3.10;;
30697;SDS011;17448;47.200;10.902;2023-12-20T04:32:29;6.10;;;3.72;;
30697;SDS011;17448;47.200;10.902;2023-12-20T04:34:55;5.45;;;3.92;;
30697;SDS011;17448;47.200;10.902;2023-12-20T04:37:21;5.10;;;3.20;;
30697;SDS011;17448;47.200;10.902;2023-12-20T04:39:47;5.50;;;3.38;;
30697;SDS011;17448;47.200;10.902;2023-12-20T04:42:13;4.28;;;3.20;;
30697;SDS011;17448;47.200;10.902;2023-12-20T04:44:40;4.93;;;3.53;;
30697;SDS011;17448;47.200;10.902;2023-12-20T04:47:06;4.70;;;3.17;;
30697;SDS011;17448;47.200;10.902;2023-12-20T04:49:32;4.35;;;3.65;;
30697;SDS011;17448;47.200;10.902;2023-12-20T04:51:58;5.10;;;3.58;;
30697;SDS011;17448;47.200;10.902;2023-12-20T04:54:24;5.38;;;3.90;;
30697;SDS011;17448;47.200;10.902;2023-12-20T04:56:50;6.05;;;4.15;;
30697;SDS011;17448;47.200;10.902;2023-12-20T04:59:17;5.95;;;3.92;;
30697;SDS011;17448;47.200;10.902;2023-12-20T05:01:43;4.72;;;3.42;;
30697;SDS011;17448;47.200;10.902;2023-12-20T05:04:09;8.20;;;4.47;;
30697;SDS011;17448;47.200;10.902;2023-12-20T05:06:35;8.82;;;4.50;;
30697;SDS011;17448;47.200;10.902;2023-12-20T05:09:02;8.48;;;4.40;;
30697;SDS011;17448;47.200;10.902;2023-12-20T05:11:28;5.28;;;4.05;;
30697;SDS011;17448;47.200;10.902;2023-12-20T05:13:54;7.97;;;4.38;;
30697;SDS011;17448;47.200;10.902;2023-12-20T05:16:20;6.72;;;4.50;;
30697;SDS011;17448;47.200;10.902;2023-12-20T05:18:47;7.75;;;4.20;;
30697;SDS011;17448;47.200;10.902;2023-12-20T05:21:15;8.65;;;4.00;;
30697;SDS011;17448;47.200;10.902;2023-12-20T05:23:41;7.65;;;4.90;;
30697;SDS011;17448;47.200;10.902;2023-12-20T05:26:07;6.70;;;5.07;;
30697;SDS011;17448;47.200;10.902;2023-12-20T05:28:34;6.60;;;4.72;;
30697;SDS011;17448;47.200;10.902;2023-12-20T05:31:00;8.35;;;4.75;;
30697;SDS011;17448;47.200;10.902;2023-12-20T05:33:26;7.18;;;4.80;;
30697;SDS011;17448;47.200;10.902;2023-12-20T05:35:53;11.43;;;5.88;;
30697;SDS011;17448;47.200;10.902;2023-12-20T05:38:19;8.25;;;5.10;;
30697;SDS011;17448;47.200;10.902;2023-12-20T05:40:45;7.40;;;4.65;;
30697;SDS011;17448;47.200;10.902;2023-12-20T05:43:11;10.32;;;5.90;;
30697;SDS011;17448;47.200;10.902;2023-12-20T05:45:37;12.05;;;5.75;;
30697;SDS011;17448;47.200;10.902;2023-12-20T05:48:03;8.95;;;5.25;;
30697;SDS011;17448;47.200;10.902;2023-12-20T05:50:30;8.35;;;4.68;;
30697;SDS011;17448;47.200;10.902;2023-12-20T05:52:56;6.93;;;4.50;;
30697;SDS011;17448;47.200;10.902;2023-12-20T05:55:22;7.30;;;4.65;;
30697;SDS011;17448;47.200;10.902;2023-12-20T05:57:48;7.15;;;4.70;;
30697;SDS011;17448;47.200;10.902;2023-12-20T06:00:15;6.47;;;4.50;;
30697;SDS011;17448;47.200;10.902;2023-12-20T06:02:41;6.65;;;4.90;;
30697;SDS011;17448;47.200;10.902;2023-12-20T06:05:07;5.68;;;3.80;;
30697;SDS011;17448;47.200;10.902;2023-12-20T06:07:33;7.75;;;4.60;;
30697;SDS011;17448;47.200;10.902;2023-12-20T06:10:00;10.30;;;5.38;;
30697;SDS011;17448;47.200;10.902;2023-12-20T06:12:26;8.43;;;5.85;;
30697;SDS011;17448;47.200;10.902;2023-12-20T06:14:54;6.50;;;4.80;;
30697;SDS011;17448;47.200;10.902;2023-12-20T06:17:20;8.05;;;5.65;;
30697;SDS011;17448;47.200;10.902;2023-12-20T06:19:46;9.55;;;5.80;;
30697;SDS011;17448;47.200;10.902;2023-12-20T06:22:13;11.65;;;6.53;;
30697;SDS011;17448;47.200;10.902;2023-12-20T06:24:39;12.55;;;7.32;;
30697;SDS011;17448;47.200;10.902;2023-12-20T06:27:06;10.25;;;5.07;;
30697;SDS011;17448;47.200;10.902;2023-12-20T06:29:32;11.65;;;6.00;;
30697;SDS011;17448;47.200;10.902;2023-12-20T06:32:00;10.93;;;5.82;;
30697;SDS011;17448;47.200;10.902;2023-12-20T06:34:26;11.00;;;5.63;;
30697;SDS011;17448;47.200;10.902;2023-12-20T06:36:52;8.05;;;4.80;;
30697;SDS011;17448;47.200;10.902;2023-12-20T06:39:18;7.60;;;4.55;;
30697;SDS011;17448;47.200;10.902;2023-12-20T06:41:44;7.35;;;4.50;;
30697;SDS011;17448;47.200;10.902;2023-12-20T06:44:11;9.13;;;4.00;;
30697;SDS011;17448;47.200;10.902;2023-12-20T06:46:37;8.05;;;3.65;;
30697;SDS011;17448;47.200;10.902;2023-12-20T06:49:03;7.53;;;3.90;;
30697;SDS011;17448;47.200;10.902;2023-12-20T06:51:29;10.20;;;4.70;;
30697;SDS011;17448;47.200;10.902;2023-12-20T06:53:56;7.40;;;3.83;;
30697;SDS011;17448;47.200;10.902;2023-12-20T06:56:22;7.95;;;4.88;;
30697;SDS011;17448;47.200;10.902;2023-12-20T06:58:48;9.38;;;5.97;;
30697;SDS011;17448;47.200;10.902;2023-12-20T07:01:15;10.98;;;6.78;;
30697;SDS011;17448;47.200;10.902;2023-12-20T07:03:41;11.60;;;6.72;;
30697;SDS011;17448;47.200;10.902;2023-12-20T07:06:07;10.43;;;7.60;;
30697;SDS011;17448;47.200;10.902;2023-12-20T07:08:34;12.43;;;7.75;;
30697;SDS011;17448;47.200;10.902;2023-12-20T07:11:00;11.60;;;8.00;;
30697;SDS011;17448;47.200;10.902;2023-12-20T07:13:26;10.95;;;7.75;;
30697;SDS011;17448;47.200;10.902;2023-12-20T07:15:52;14.70;;;8.50;;
30697;SDS011;17448;47.200;10.902;2023-12-20T07:18:19;14.07;;;8.93;;
30697;SDS011;17448;47.200;10.902;2023-12-20T07:20:45;14.88;;;8.55;;
30697;SDS011;17448;47.200;10.902;2023-12-20T07:23:11;14.77;;;8.65;;
30697;SDS011;17448;47.200;10.902;2023-12-20T07:25:37;14.27;;;8.93;;
30697;SDS011;17448;47.200;10.902;2023-12-20T07:28:03;14.23;;;8.38;;
30697;SDS011;17448;47.200;10.902;2023-12-20T07:30:30;15.68;;;8.80;;
30697;SDS011;17448;47.200;10.902;2023-12-20T07:32:56;15.00;;;8.38;;
30697;SDS011;17448;47.200;10.902;2023-12-20T07:35:25;14.60;;;8.30;;
30697;SDS011;17448;47.200;10.902;2023-12-20T07:37:51;17.48;;;10.27;;
30697;SDS011;17448;47.200;10.902;2023-12-20T07:40:17;16.08;;;9.00;;
30697;SDS011;17448;47.200;10.902;2023-12-20T07:42:44;15.90;;;9.38;;
30697;SDS011;17448;47.200;10.902;2023-12-20T07:45:10;17.60;;;9.68;;
30697;SDS011;17448;47.200;10.902;2023-12-20T07:47:37;14.73;;;9.55;;
30697;SDS011;17448;47.200;10.902;2023-12-20T07:50:03;20.73;;;10.77;;
30697;SDS011;17448;47.200;10.902;2023-12-20T07:52:29;32.15;;;14.50;;
30697;SDS011;17448;47.200;10.902;2023-12-20T07:54:56;20.65;;;10.82;;
30697;SDS011;17448;47.200;10.902;2023-12-20T07:57:23;22.08;;;10.73;;
30697;SDS011;17448;47.200;10.902;2023-12-20T07:59:49;16.00;;;9.77;;
30697;SDS011;17448;47.200;10.902;2023-12-20T08:02:16;19.00;;;10.45;;
30697;SDS011;17448;47.200;10.902;2023-12-20T08:04:42;15.05;;;9.48;;
30697;SDS011;17448;47.200;10.902;2023-12-20T08:07:08;17.52;;;8.85;;
30697;SDS011;17448;47.200;10.902;2023-12-20T08:09:35;17.88;;;9.38;;
30697;SDS011;17448;47.200;10.902;2023-12-20T08:12:02;14.82;;;8.93;;
30697;SDS011;17448;47.200;10.902;2023-12-20T08:14:28;16.17;;;9.02;;
30697;SDS011;17448;47.200;10.902;2023-12-20T08:16:54;16.45;;;10.45;;
30697;SDS011;17448;47.200;10.902;2023-12-20T08:19:20;26.90;;;13.40;;
30697;SDS011;17448;47.200;10.902;2023-12-20T08:21:46;19.00;;;11.13;;
30697;SDS011;17448;47.200;10.902;2023-12-20T08:24:12;18.92;;;10.43;;
30697;SDS011;17448;47.200;10.902;2023-12-20T08:26:39;17.33;;;9.40;;
30697;SDS011;17448;47.200;10.902;2023-12-20T08:29:05;17.38;;;10.95;;
30697;SDS011;17448;47.200;10.902;2023-12-20T08:31:31;19.48;;;10.63;;
30697;SDS011;17448;47.200;10.902;2023-12-20T08:33:57;15.85;;;9.75;;
30697;SDS011;17448;47.200;10.902;2023-12-20T08:36:23;17.67;;;10.02;;
30697;SDS011;17448;47.200;10.902;2023-12-20T08:38:49;19.23;;;10.85;;
30697;SDS011;17448;47.200;10.902;2023-12-20T08:41:16;19.45;;;10.40;;
30697;SDS011;17448;47.200;10.902;2023-12-20T08:43:42;19.85;;;9.60;;
30697;SDS011;17448;47.200;10.902;2023-12-20T08:46:09;29.85;;;17.35;;
30697;SDS011;17448;47.200;10.902;2023-12-20T08:48:35;38.65;;;18.35;;
30697;SDS011;17448;47.200;10.902;2023-12-20T08:51:02;33.33;;;17.30;;
30697;SDS011;17448;47.200;10.902;2023-12-20T08:53:28;28.20;;;16.00;;
30697;SDS011;17448;47.200;10.902;2023-12-20T08:55:55;26.83;;;14.63;;
30697;SDS011;17448;47.200;10.902;2023-12-20T08:58:23;20.92;;;11.80;;
30697;SDS011;17448;47.200;10.902;2023-12-20T09:00:49;19.55;;;11.52;;
30697;SDS011;17448;47.200;10.902;2023-12-20T09:03:15;20.42;;;11.15;;
30697;SDS011;17448;47.200;10.902;2023-12-20T09:05:41;19.70;;;11.60;;
30697;SDS011;17448;47.200;10.902;2023-12-20T09:08:07;20.02;;;11.40;;
30697;SDS011;17448;47.200;10.902;2023-12-20T09:10:35;21.45;;;11.82;;
30697;SDS011;17448;47.200;10.902;2023-12-20T09:13:01;23.50;;;13.98;;
30697;SDS011;17448;47.200;10.902;2023-12-20T09:15:29;19.92;;;11.77;;
30697;SDS011;17448;47.200;10.902;2023-12-20T09:17:55;19.15;;;11.40;;
30697;SDS011;17448;47.200;10.902;2023-12-20T09:20:22;19.00;;;11.45;;
30697;SDS011;17448;47.200;10.902;2023-12-20T09:22:48;19.98;;;12.38;;
30697;SDS011;17448;47.200;10.902;2023-12-20T09:25:15;18.77;;;11.00;;
30697;SDS011;17448;47.200;10.902;2023-12-20T09:27:42;20.92;;;11.52;;
30697;SDS011;17448;47.200;10.902;2023-12-20T09:30:09;24.85;;;12.13;;
30697;SDS011;17448;47.200;10.902;2023-12-20T09:32:35;22.35;;;12.00;;
30697;SDS011;17448;47.200;10.902;2023-12-20T09:35:02;18.52;;;11.30;;
30697;SDS011;17448;47.200;10.902;2023-12-20T09:37:30;20.83;;;11.93;;
30697;SDS011;17448;47.200;10.902;2023-12-20T09:39:56;20.80;;;13.73;;
30697;SDS011;17448;47.200;10.902;2023-12-20T09:42:24;21.13;;;13.18;;
30697;SDS011;17448;47.200;10.902;2023-12-20T09:44:55;21.45;;;12.57;;
30697;SDS011;17448;47.200;10.902;2023-12-20T09:47:24;22.58;;;12.32;;
30697;SDS011;17448;47.200;10.902;2023-12-20T09:49:51;20.88;;;12.10;;
30697;SDS011;17448;47.200;10.902;2023-12-20T09:52:18;15.80;;;11.30;;
30697;SDS011;17448;47.200;10.902;2023-12-20T09:54:44;21.00;;;12.63;;
30697;SDS011;17448;47.200;10.902;2023-12-20T09:57:11;23.65;;;15.15;;
30697;SDS011;17448;47.200;10.902;2023-12-20T09:59:38;25.20;;;15.70;;
30697;SDS011;17448;47.200;10.902;2023-12-20T10:02:04;23.58;;;13.50;;
30697;SDS011;17448;47.200;10.902;2023-12-20T10:04:35;21.63;;;13.63;;
30697;SDS011;17448;47.200;10.902;2023-12-20T10:07:02;21.92;;;12.95;;
30697;SDS011;17448;47.200;10.902;2023-12-20T10:09:31;21.23;;;10.88;;
30697;SDS011;17448;47.200;10.902;2023-12-20T10:11:58;18.23;;;10.95;;
30697;SDS011;17448;47.200;10.902;2023-12-20T10:14:24;21.63;;;12.77;;
30697;SDS011;17448;47.200;10.902;2023-12-20T10:16:50;21.85;;;13.25;;
30697;SDS011;17448;47.200;10.902;2023-12-20T10:19:17;17.15;;;10.80;;
30697;SDS011;17448;47.200;10.902;2023-12-20T10:21:43;18.05;;;10.73;;
30697;SDS011;17448;47.200;10.902;2023-12-20T10:24:10;16.20;;;10.85;;
30697;SDS011;17448;47.200;10.902;2023-12-20T10:26:42;16.05;;;10.93;;
30697;SDS011;17448;47.200;10.902;2023-12-20T10:29:08;18.77;;;10.75;;
30697;SDS011;17448;47.200;10.902;2023-12-20T10:31:36;18.90;;;10.63;;
30697;SDS011;17448;47.200;10.902;2023-12-20T10:34:04;35.90;;;19.33;;
30697;SDS011;17448;47.200;10.902;2023-12-20T10:36:30;22.35;;;12.32;;
30697;SDS011;17448;47.200;10.902;2023-12-20T10:38:57;19.50;;;11.23;;
30697;SDS011;17448;47.200;10.902;2023-12-20T10:41:28;15.30;;;10.43;;
30697;SDS011;17448;47.200;10.902;2023-12-20T10:44:01;19.60;;;11.10;;
30697;SDS011;17448;47.200;10.902;2023-12-20T10:46:28;20.92;;;11.40;;
30697;SDS011;17448;47.200;10.902;2023-12-20T10:48:55;19.85;;;11.43;;
30697;SDS011;17448;47.200;10.902;2023-12-20T10:51:22;20.05;;;11.95;;
30697;SDS011;17448;47.200;10.902;2023-12-20T10:53:49;17.75;;;10.98;;
30697;SDS011;17448;47.200;10.902;2023-12-20T10:56:19;16.30;;;10.65;;
30697;SDS011;17448;47.200;10.902;2023-12-20T10:58:46;16.83;;;10.55;;
30697;SDS011;17448;47.200;10.902;2023-12-20T11:01:13;17.27;;;11.13;;
30697;SDS011;17448;47.200;10.902;2023-12-20T11:03:43;22.25;;;14.98;;
30697;SDS011;17448;47.200;10.902;2023-12-20T11:06:16;24.90;;;15.95;;
30697;SDS011;17448;47.200;10.902;2023-12-20T11:11:23;28.33;;;17.27;;
30697;SDS011;17448;47.200;10.902;2023-12-20T11:14:14;30.02;;;16.40;;
30697;SDS011;17448;47.200;10.902;2023-12-20T11:16:38;22.02;;;13.05;;
30697;SDS011;17448;47.200;10.902;2023-12-20T11:19:05;24.25;;;14.77;;
30697;SDS011;17448;47.200;10.902;2023-12-20T11:21:31;23.27;;;14.70;;
30697;SDS011;17448;47.200;10.902;2023-12-20T11:23:57;22.33;;;13.75;;
30697;SDS011;17448;47.200;10.902;2023-12-20T11:26:27;27.27;;;16.48;;
30697;SDS011;17448;47.200;10.902;2023-12-20T11:29:28;22.98;;;13.90;;
30697;SDS011;17448;47.200;10.902;2023-12-20T11:31:48;22.80;;;13.45;;
30697;SDS011;17448;47.200;10.902;2023-12-20T11:34:14;23.20;;;14.05;;
30697;SDS011;17448;47.200;10.902;2023-12-20T11:36:43;28.65;;;13.98;;
30697;SDS011;17448;47.200;10.902;2023-12-20T11:39:10;17.67;;;12.10;;
30697;SDS011;17448;47.200;10.902;2023-12-20T11:41:36;17.55;;;8.73;;
30697;SDS011;17448;47.200;10.902;2023-12-20T11:44:04;13.98;;;8.43;;
30697;SDS011;17448;47.200;10.902;2023-12-20T11:46:31;16.75;;;9.43;;
30697;SDS011;17448;47.200;10.902;2023-12-20T11:48:59;23.10;;;12.32;;
30697;SDS011;17448;47.200;10.902;2023-12-20T11:51:26;38.45;;;21.55;;
30697;SDS011;17448;47.200;10.902;2023-12-20T11:53:53;27.15;;;18.63;;
30697;SDS011;17448;47.200;10.902;2023-12-20T11:56:19;35.95;;;19.08;;
30697;SDS011;17448;47.200;10.902;2023-12-20T11:58:45;44.17;;;17.55;;
30697;SDS011;17448;47.200;10.902;2023-12-20T12:01:12;26.70;;;17.23;;
30697;SDS011;17448;47.200;10.902;2023-12-20T12:03:38;28.23;;;17.70;;
30697;SDS011;17448;47.200;10.902;2023-12-20T12:06:04;20.08;;;14.77;;
30697;SDS011;17448;47.200;10.902;2023-12-20T12:08:30;14.45;;;9.05;;
30697;SDS011;17448;47.200;10.902;2023-12-20T12:10:56;30.88;;;10.00;;
30697;SDS011;17448;47.200;10.902;2023-12-20T12:13:23;17.85;;;9.25;;
30697;SDS011;17448;47.200;10.902;2023-12-20T12:15:52;18.77;;;12.38;;
30697;SDS011;17448;47.200;10.902;2023-12-20T12:18:19;29.95;;;14.75;;
30697;SDS011;17448;47.200;10.902;2023-12-20T12:20:45;23.17;;;13.70;;
30697;SDS011;17448;47.200;10.902;2023-12-20T12:23:11;20.10;;;11.45;;
30697;SDS011;17448;47.200;10.902;2023-12-20T12:25:39;19.65;;;14.02;;
30697;SDS011;17448;47.200;10.902;2023-12-20T12:28:05;16.77;;;11.73;;
30697;SDS011;17448;47.200;10.902;2023-12-20T12:30:32;18.85;;;12.18;;
30697;SDS011;17448;47.200;10.902;2023-12-20T12:32:58;26.42;;;14.50;;
30697;SDS011;17448;47.200;10.902;2023-12-20T12:35:24;25.65;;;15.45;;
30697;SDS011;17448;47.200;10.902;2023-12-20T12:37:51;21.67;;;12.95;;
30697;SDS011;17448;47.200;10.902;2023-12-20T12:40:17;23.75;;;14.45;;
30697;SDS011;17448;47.200;10.902;2023-12-20T12:42:44;20.15;;;12.38;;
30697;SDS011;17448;47.200;10.902;2023-12-20T12:45:13;18.67;;;11.82;;
30697;SDS011;17448;47.200;10.902;2023-12-20T12:47:40;23.15;;;13.35;;
30697;SDS011;17448;47.200;10.902;2023-12-20T12:50:07;24.58;;;16.05;;
30697;SDS011;17448;47.200;10.902;2023-12-20T12:52:33;37.05;;;15.93;;
30697;SDS011;17448;47.200;10.902;2023-12-20T12:55:00;25.08;;;13.13;;
30697;SDS011;17448;47.200;10.902;2023-12-20T12:57:26;24.33;;;14.05;;
30697;SDS011;17448;47.200;10.902;2023-12-20T12:59:52;24.02;;;14.60;;
30697;SDS011;17448;47.200;10.902;2023-12-20T13:02:19;27.25;;;13.95;;
30697;SDS011;17448;47.200;10.902;2023-12-20T13:04:45;26.58;;;15.23;;
30697;SDS011;17448;47.200;10.902;2023-12-20T13:07:11;22.98;;;13.48;;
30697;SDS011;17448;47.200;10.902;2023-12-20T13:09:38;35.00;;;15.60;;
30697;SDS011;17448;47.200;10.902;2023-12-20T13:12:05;25.70;;;14.48;;
30697;SDS011;17448;47.200;10.902;2023-12-20T13:14:33;21.20;;;13.73;;
30697;SDS011;17448;47.200;10.902;2023-12-20T13:17:00;19.50;;;13.95;;
30697;SDS011;17448;47.200;10.902;2023-12-20T13:19:26;21.48;;;13.73;;
30697;SDS011;17448;47.200;10.902;2023-12-20T13:21:53;22.75;;;13.93;;
30697;SDS011;17448;47.200;10.902;2023-12-20T13:24:19;20.05;;;12.40;;
30697;SDS011;17448;47.200;10.902;2023-12-20T13:26:46;21.55;;;11.30;;
30697;SDS011;17448;47.200;10.902;2023-12-20T13:29:12;23.67;;;11.65;;
30697;SDS011;17448;47.200;10.902;2023-12-20T13:31:38;16.67;;;11.43;;
30697;SDS011;17448;47.200;10.902;2023-12-20T13:34:05;17.83;;;12.45;;
30697;SDS011;17448;47.200;10.902;2023-12-20T13:36:31;18.70;;;13.02;;
30697;SDS011;17448;47.200;10.902;2023-12-20T13:38:58;17.80;;;12.43;;
30697;SDS011;17448;47.200;10.902;2023-12-20T13:41:24;21.17;;;12.27;;
30697;SDS011;17448;47.200;10.902;2023-12-20T13:43:50;19.95;;;11.43;;
30697;SDS011;17448;47.200;10.902;2023-12-20T13:46:16;18.08;;;11.80;;
30697;SDS011;17448;47.200;10.902;2023-12-20T13:48:43;24.95;;;12.45;;
30697;SDS011;17448;47.200;10.902;2023-12-20T13:51:10;20.98;;;12.07;;
30697;SDS011;17448;47.200;10.902;2023-12-20T13:53:36;26.33;;;12.63;;
30697;SDS011;17448;47.200;10.902;2023-12-20T13:56:03;27.80;;;13.23;;
30697;SDS011;17448;47.200;10.902;2023-12-20T13:58:29;27.40;;;15.02;;
30697;SDS011;17448;47.200;10.902;2023-12-20T14:00:56;22.23;;;13.13;;
30697;SDS011;17448;47.200;10.902;2023-12-20T14:03:23;22.67;;;10.50;;
30697;SDS011;17448;47.200;10.902;2023-12-20T14:05:49;17.52;;;10.95;;
30697;SDS011;17448;47.200;10.902;2023-12-20T14:08:15;18.02;;;10.05;;
30697;SDS011;17448;47.200;10.902;2023-12-20T14:10:41;19.92;;;11.90;;
30697;SDS011;17448;47.200;10.902;2023-12-20T14:13:07;16.30;;;11.10;;
30697;SDS011;17448;47.200;10.902;2023-12-20T14:15:34;16.20;;;10.55;;
30697;SDS011;17448;47.200;10.902;2023-12-20T14:18:05;21.88;;;12.60;;
30697;SDS011;17448;47.200;10.902;2023-12-20T14:20:32;24.85;;;13.93;;